Time;durP1;ratioP1;P1;durP2;ratioP2;P2;SDS_P1;SDS_P2;PMS_P1;PMS_P2;Temp;Humidity;BMP_temperature;BMP_pressure;BME280_temperature;BME280_humidity;BME280_pressure;Samples;Min_cycle;Max_cycle;Signal;HPM_P1;HPM_P2
2022/10/28 00:02:20;;;;;;;17.40;8.87;;;13.80;99.90;;;;;;5028541;28;20049;-72
2022/10/28 00:04:46;;;;;;;17.20;9.33;;;13.90;99.90;;;;;;5028469;28;20506;-72
2022/10/28 00:07:11;;;;;;;16.53;8.33;;;13.90;99.90;;;;;;5037013;28;20547;-72
2022/10/28 00:09:37;;;;;;;21.93;9.13;;;14.00;99.90;;;;;;5029258;28;20452;-72
2022/10/28 00:12:03;;;;;;;13.33;8.40;;;14.10;99.90;;;;;;4995723;28;20072;-72
2022/10/28 00:14:29;;;;;;;17.23;8.40;;;14.20;99.90;;;;;;5015696;28;20037;-72
2022/10/28 00:16:54;;;;;;;17.57;8.37;;;14.20;99.90;;;;;;5029212;28;20041;-72
2022/10/28 00:19:20;;;;;;;16.83;8.73;;;14.20;99.90;;;;;;5028982;28;20041;-72
2022/10/28 00:21:46;;;;;;;14.90;8.70;;;14.10;99.90;;;;;;5020129;28;20048;-72
2022/10/28 00:24:13;;;;;;;16.47;8.50;;;14.10;99.90;;;;;;5027368;28;20044;-73
2022/10/28 00:26:43;;;;;;;17.80;9.13;;;14.10;99.90;;;;;;5027647;28;20045;-72
2022/10/28 00:29:18;;;;;;;15.67;9.17;;;14.10;99.90;;;;;;5014033;28;20288;-72
2022/10/28 00:31:45;;;;;;;16.50;8.82;;;14.10;99.90;;;;;;5027605;28;20287;-72
2022/10/28 00:34:14;;;;;;;14.90;8.57;;;14.10;99.90;;;;;;5012315;28;20049;-72
2022/10/28 00:36:42;;;;;;;18.23;9.17;;;14.10;99.90;;;;;;5030239;28;20291;-72
2022/10/28 00:39:20;;;;;;;17.17;9.33;;;14.10;99.90;;;;;;5021666;28;20326;-72
2022/10/28 00:41:55;;;;;;;17.17;8.87;;;14.10;99.90;;;;;;5010924;28;20327;-72
2022/10/28 00:44:39;;;;;;;;;;;14.10;99.90;;;;;;5027830;28;20292;-72
2022/10/28 00:47:32;;;;;;;15.67;8.40;;;14.00;99.90;;;;;;5028088;28;19917;-73
2022/10/28 00:50:08;;;;;;;15.43;8.83;;;14.00;99.90;;;;;;5039796;28;20617;-72
2022/10/28 00:52:34;;;;;;;17.63;9.17;;;13.90;99.90;;;;;;5045252;28;20280;-72
2022/10/28 00:55:01;;;;;;;15.50;8.20;;;13.90;99.90;;;;;;5028847;28;20272;-73
2022/10/28 00:57:32;;;;;;;16.70;8.87;;;13.80;99.90;;;;;;5028620;28;20438;-72
2022/10/28 01:00:00;;;;;;;16.00;9.30;;;13.80;99.90;;;;;;5024195;28;20826;-72
2022/10/28 01:02:27;;;;;;;16.47;8.87;;;13.80;99.90;;;;;;5031357;28;20296;-72
2022/10/28 01:04:53;;;;;;;18.10;8.93;;;13.70;99.90;;;;;;5023658;28;20280;-73
2022/10/28 01:07:19;;;;;;;19.23;9.17;;;13.70;99.90;;;;;;5036728;28;20280;-72
2022/10/28 01:09:45;;;;;;;20.10;9.63;;;13.70;99.90;;;;;;5031616;28;20323;-72
2022/10/28 01:12:40;;;;;;;18.70;10.17;;;13.60;99.90;;;;;;5047637;28;20268;-72
2022/10/28 01:15:27;;;;;;;17.87;9.47;;;13.60;99.90;;;;;;5021555;28;20280;-72
2022/10/28 01:18:05;;;;;;;18.87;9.63;;;13.60;99.90;;;;;;5031617;28;20387;-72
2022/10/28 01:21:05;;;;;;;18.33;9.30;;;13.60;99.90;;;;;;5030417;28;20292;-72
2022/10/28 01:23:34;;;;;;;15.80;9.23;;;13.60;99.90;;;;;;5019974;28;20777;-72
2022/10/28 01:26:02;;;;;;;16.87;9.90;;;13.60;99.90;;;;;;5040764;28;20280;-72
2022/10/28 01:28:50;;;;;;;16.13;8.87;;;13.60;99.90;;;;;;5012825;28;20292;-72
2022/10/28 01:31:35;;;;;;;15.57;10.00;;;13.60;99.90;;;;;;5012166;28;20410;-72
2022/10/28 01:34:10;;;;;;;14.38;9.27;;;13.60;99.90;;;;;;5025631;28;20288;-72
2022/10/28 01:37:18;;;;;;;22.52;10.00;;;13.60;99.90;;;;;;5012023;28;20461;-72
2022/10/28 01:40:07;;;;;;;23.10;10.00;;;13.60;99.90;;;;;;5029060;28;20057;-72
2022/10/28 01:42:50;;;;;;;17.70;9.50;;;13.50;99.90;;;;;;5031027;28;20280;-72
2022/10/28 01:45:42;;;;;;;18.70;9.00;;;13.50;99.90;;;;;;5031455;28;20778;-72
2022/10/28 01:48:21;;;;;;;15.27;9.30;;;13.40;99.90;;;;;;5026143;28;20281;-72
2022/10/28 01:50:51;;;;;;;20.07;9.60;;;13.40;99.90;;;;;;5015218;28;20281;-72
2022/10/28 01:53:22;;;;;;;18.07;8.90;;;13.30;99.90;;;;;;5040748;28;20311;-72
2022/10/28 01:55:50;;;;;;;16.83;9.47;;;13.20;99.90;;;;;;5022107;28;20697;-72
2022/10/28 01:58:22;;;;;;;13.27;8.63;;;13.20;99.90;;;;;;5046226;28;20850;-72
2022/10/28 02:00:49;;;;;;;17.30;9.43;;;13.20;99.90;;;;;;5030823;28;20323;-72
2022/10/28 02:03:16;;;;;;;17.23;9.77;;;13.10;99.90;;;;;;5031889;28;20343;-72
2022/10/28 02:05:47;;;;;;;20.47;9.20;;;13.10;99.90;;;;;;5028585;28;20838;-72
2022/10/28 02:08:31;;;;;;;17.53;10.37;;;13.10;99.90;;;;;;5037807;28;20712;-72
2022/10/28 02:10:59;;;;;;;20.33;9.60;;;13.10;99.90;;;;;;5034104;28;20371;-72
2022/10/28 02:13:59;;;;;;;16.80;9.47;;;13.10;99.90;;;;;;5039729;28;20288;-72
2022/10/28 02:16:40;;;;;;;12.30;8.97;;;13.10;99.90;;;;;;5007981;28;20276;-72
2022/10/28 02:19:42;;;;;;;17.10;9.83;;;13.10;99.90;;;;;;5041389;28;20304;-72
2022/10/28 02:22:14;;;;;;;18.43;9.63;;;13.20;99.90;;;;;;5028177;28;20283;-72
2022/10/28 02:24:51;;;;;;;20.90;10.50;;;13.20;99.90;;;;;;5035059;28;20275;-72
2022/10/28 02:27:24;;;;;;;18.83;10.27;;;13.20;99.90;;;;;;5032385;28;20304;-72
2022/10/28 02:29:59;;;;;;;18.97;10.23;;;13.20;99.90;;;;;;5020172;28;20297;-72
2022/10/28 02:32:28;;;;;;;19.15;10.48;;;13.30;99.90;;;;;;5025661;28;20807;-72
2022/10/28 02:34:57;;;;;;;21.30;10.07;;;13.30;99.90;;;;;;5027736;28;20352;-72
2022/10/28 02:37:29;;;;;;;15.87;9.47;;;13.30;99.90;;;;;;5011157;28;20284;-72
2022/10/28 02:40:01;;;;;;;19.13;10.33;;;13.30;99.90;;;;;;5022690;28;20276;-72
2022/10/28 02:42:31;;;;;;;20.83;10.57;;;13.30;99.90;;;;;;5013501;28;20294;-72
2022/10/28 02:45:13;;;;;;;19.77;10.77;;;13.30;99.90;;;;;;5014266;28;20286;-72
2022/10/28 02:47:43;;;;;;;19.13;10.87;;;13.30;99.90;;;;;;5030494;28;20372;-72
2022/10/28 02:50:14;;;;;;;23.97;11.43;;;13.30;99.90;;;;;;5030002;28;20338;-72
2022/10/28 02:52:43;;;;;;;16.57;10.70;;;13.30;99.90;;;;;;5031370;28;20284;-72
2022/10/28 02:55:09;;;;;;;17.53;10.30;;;13.30;99.90;;;;;;5013216;28;20284;-72
2022/10/28 02:57:40;;;;;;;21.03;10.13;;;13.30;99.90;;;;;;4997256;28;20357;-72
2022/10/28 03:00:09;;;;;;;18.00;10.60;;;13.40;99.90;;;;;;5030168;28;20081;-72
2022/10/28 03:02:35;;;;;;;23.00;11.23;;;13.40;99.90;;;;;;5030171;28;20379;-71
2022/10/28 03:05:03;;;;;;;19.40;10.37;;;13.40;99.90;;;;;;5034770;28;20291;-71
2022/10/28 03:07:29;;;;;;;20.13;10.30;;;13.40;99.90;;;;;;5030217;28;20283;-71
2022/10/28 03:09:55;;;;;;;16.80;10.53;;;13.40;99.90;;;;;;5003542;28;20284;-71
2022/10/28 03:12:20;;;;;;;18.10;10.70;;;13.40;99.90;;;;;;5036257;28;20036;-72
2022/10/28 03:14:46;;;;;;;19.27;10.83;;;13.40;99.90;;;;;;5030063;28;20092;-71
2022/10/28 03:17:12;;;;;;;17.10;10.20;;;13.40;99.90;;;;;;5038528;28;20470;-71
2022/10/28 03:19:38;;;;;;;19.93;11.07;;;13.40;99.90;;;;;;5014909;28;20084;-71
2022/10/28 03:22:03;;;;;;;16.23;10.13;;;13.40;99.90;;;;;;5003698;28;20418;-71
2022/10/28 03:24:29;;;;;;;20.67;10.23;;;13.40;99.90;;;;;;5015392;28;20276;-71
2022/10/28 03:26:55;;;;;;;20.77;11.00;;;13.40;99.90;;;;;;5024888;28;20048;-72
2022/10/28 03:29:20;;;;;;;17.60;10.20;;;13.40;99.90;;;;;;4996503;28;20045;-72
2022/10/28 03:31:46;;;;;;;18.63;10.50;;;13.50;99.90;;;;;;5014339;28;20172;-71
2022/10/28 03:34:12;;;;;;;20.47;11.60;;;13.50;99.90;;;;;;5004626;28;20481;-71
2022/10/28 03:36:37;;;;;;;21.90;10.77;;;13.40;99.90;;;;;;5015900;28;20068;-71
2022/10/28 03:39:03;;;;;;;20.13;11.00;;;13.40;99.90;;;;;;5037702;28;20378;-72
2022/10/28 03:41:29;;;;;;;19.50;11.50;;;13.40;99.90;;;;;;5041270;28;20064;-71
2022/10/28 03:43:54;;;;;;;21.17;11.50;;;13.40;99.90;;;;;;5002940;28;20030;-71
2022/10/28 03:46:20;;;;;;;17.17;11.00;;;13.40;99.90;;;;;;5019466;28;20040;-71
2022/10/28 03:48:46;;;;;;;20.43;10.80;;;13.40;99.90;;;;;;5038954;28;20049;-72
2022/10/28 03:51:11;;;;;;;18.03;10.70;;;13.40;99.90;;;;;;5042327;28;20045;-71
2022/10/28 03:53:37;;;;;;;19.43;11.10;;;13.30;99.90;;;;;;5047396;28;20094;-72
2022/10/28 03:56:03;;;;;;;16.73;10.73;;;13.30;99.90;;;;;;5039899;28;20048;-72
2022/10/28 03:58:29;;;;;;;22.23;10.90;;;13.30;99.90;;;;;;5032684;28;20511;-71
2022/10/28 04:00:55;;;;;;;20.93;11.33;;;13.30;99.90;;;;;;5030305;28;20056;-71
2022/10/28 04:03:22;;;;;;;23.87;10.27;;;13.30;99.90;;;;;;5022638;28;20303;-71
2022/10/28 04:05:48;;;;;;;22.53;11.30;;;13.20;99.90;;;;;;5037520;28;20292;-71
2022/10/28 04:08:16;;;;;;;20.97;11.60;;;13.20;99.90;;;;;;5015767;28;20623;-71
2022/10/28 04:10:45;;;;;;;20.03;11.17;;;13.20;99.90;;;;;;5035011;28;20147;-71
2022/10/28 04:13:11;;;;;;;21.03;11.50;;;13.20;99.90;;;;;;5015152;28;20319;-71
2022/10/28 04:15:37;;;;;;;19.33;10.93;;;13.20;99.90;;;;;;5028949;28;20291;-71
2022/10/28 04:18:03;;;;;;;19.93;10.73;;;13.10;99.90;;;;;;5030603;28;20303;-71
2022/10/28 04:20:29;;;;;;;23.83;11.10;;;13.10;99.90;;;;;;5030040;28;20299;-71
2022/10/28 04:22:55;;;;;;;19.33;11.23;;;13.10;99.90;;;;;;5030341;28;20708;-71
2022/10/28 04:25:21;;;;;;;21.93;12.30;;;13.10;99.90;;;;;;5015147;28;20299;-71
2022/10/28 04:27:48;;;;;;;19.77;11.77;;;13.10;99.90;;;;;;5030445;28;20037;-71
2022/10/28 04:30:13;;;;;;;18.87;11.60;;;13.10;99.90;;;;;;5038442;28;20299;-71
2022/10/28 04:32:40;;;;;;;22.20;12.03;;;13.10;99.90;;;;;;5042782;28;20767;-71
2022/10/28 04:35:07;;;;;;;24.53;12.53;;;13.00;99.90;;;;;;5037010;28;20132;-72
2022/10/28 04:37:33;;;;;;;18.77;11.53;;;13.00;99.90;;;;;;5006982;28;20312;-71
2022/10/28 04:39:59;;;;;;;20.50;11.90;;;12.90;99.90;;;;;;5032478;28;20798;-71
2022/10/28 04:42:24;;;;;;;20.60;11.67;;;12.90;99.90;;;;;;5033396;28;20040;-71
2022/10/28 04:44:50;;;;;;;17.47;10.87;;;12.80;99.90;;;;;;5030810;28;20049;-72
2022/10/28 04:47:16;;;;;;;19.07;11.27;;;12.80;99.90;;;;;;5019927;28;20089;-72
2022/10/28 04:49:42;;;;;;;21.63;12.10;;;12.80;99.90;;;;;;5041450;28;20040;-71
2022/10/28 04:52:08;;;;;;;21.93;11.07;;;12.70;99.90;;;;;;4998613;28;20280;-71
2022/10/28 04:54:34;;;;;;;23.50;12.23;;;12.70;99.90;;;;;;5019976;28;20044;-72
2022/10/28 04:56:59;;;;;;;20.83;11.33;;;12.60;99.90;;;;;;5042671;28;21170;-71
2022/10/28 04:59:25;;;;;;;25.20;11.83;;;12.60;99.90;;;;;;5026972;28;20029;-71
2022/10/28 05:01:54;;;;;;;20.67;12.03;;;12.60;99.90;;;;;;5031248;28;20567;-72
2022/10/28 05:04:19;;;;;;;25.20;12.33;;;12.60;99.90;;;;;;5038052;28;20315;-71
2022/10/28 05:06:45;;;;;;;22.67;12.03;;;12.60;99.90;;;;;;5032364;28;20135;-71
2022/10/28 05:09:12;;;;;;;19.97;11.93;;;12.60;99.90;;;;;;5007333;28;20049;-71
2022/10/28 05:11:37;;;;;;;19.77;12.30;;;12.50;99.90;;;;;;5021287;28;20397;-71
2022/10/28 05:14:03;;;;;;;19.80;11.60;;;12.50;99.90;;;;;;5033342;28;20659;-72
2022/10/28 05:16:29;;;;;;;24.73;12.97;;;12.50;99.90;;;;;;5014128;28;20047;-72
2022/10/28 05:18:55;;;;;;;29.93;12.73;;;12.50;99.90;;;;;;5029895;28;20444;-71
2022/10/28 05:21:21;;;;;;;24.93;12.90;;;12.50;99.90;;;;;;5026693;28;20124;-72
2022/10/28 05:23:47;;;;;;;23.07;12.17;;;12.60;99.90;;;;;;5012008;28;20422;-71
2022/10/28 05:26:13;;;;;;;22.63;12.70;;;12.60;99.90;;;;;;5032466;28;20041;-71
2022/10/28 05:28:38;;;;;;;22.53;11.53;;;12.60;99.90;;;;;;5033670;28;20047;-71
2022/10/28 05:31:04;;;;;;;19.83;11.87;;;12.60;99.90;;;;;;5033273;28;20288;-71
2022/10/28 05:33:30;;;;;;;22.20;11.83;;;12.50;99.90;;;;;;5026183;28;20052;-71
2022/10/28 05:35:58;;;;;;;21.33;11.63;;;12.50;99.90;;;;;;5023213;28;20045;-71
2022/10/28 05:38:24;;;;;;;21.10;13.07;;;12.50;99.90;;;;;;5027424;28;20065;-71
2022/10/28 05:40:50;;;;;;;21.47;11.87;;;12.50;99.90;;;;;;5014181;28;20323;-71
2022/10/28 05:43:16;;;;;;;23.53;12.23;;;12.50;99.90;;;;;;5030467;28;20368;-71
2022/10/28 05:45:42;;;;;;;20.93;12.03;;;12.50;99.90;;;;;;5019540;28;20041;-72
2022/10/28 05:48:08;;;;;;;20.73;11.10;;;12.50;99.90;;;;;;5000979;28;20048;-72
2022/10/28 05:50:34;;;;;;;16.97;11.13;;;12.50;99.90;;;;;;5032044;28;20052;-71
2022/10/28 05:52:59;;;;;;;22.70;12.20;;;12.50;99.90;;;;;;5017337;28;20834;-71
2022/10/28 05:55:28;;;;;;;26.47;12.03;;;12.50;99.90;;;;;;5014026;28;20284;-71
2022/10/28 05:57:54;;;;;;;21.10;12.33;;;12.50;99.90;;;;;;5033624;28;20047;-72
2022/10/28 06:00:23;;;;;;;24.00;12.53;;;12.50;99.90;;;;;;5011938;28;20328;-72
2022/10/28 06:02:48;;;;;;;20.47;11.53;;;12.50;99.90;;;;;;5027874;28;20304;-72
2022/10/28 06:05:15;;;;;;;17.17;11.17;;;12.60;99.90;;;;;;5030554;28;20378;-71
2022/10/28 06:07:41;;;;;;;21.60;12.07;;;12.60;99.90;;;;;;5016713;28;20097;-71
2022/10/28 06:10:08;;;;;;;21.60;12.37;;;12.60;99.90;;;;;;5032362;28;20280;-71
2022/10/28 06:12:34;;;;;;;21.07;11.70;;;12.60;99.90;;;;;;5031152;28;20291;-71
2022/10/28 06:15:00;;;;;;;18.63;10.73;;;12.60;99.90;;;;;;5030883;28;20774;-71
2022/10/28 06:17:26;;;;;;;23.83;11.80;;;12.60;99.90;;;;;;5008962;28;20037;-71
2022/10/28 06:19:51;;;;;;;21.20;11.43;;;12.60;99.90;;;;;;5015110;28;20221;-71
2022/10/28 06:22:18;;;;;;;21.27;11.20;;;12.70;99.90;;;;;;5025003;28;20552;-71
2022/10/28 06:24:43;;;;;;;23.83;12.20;;;12.70;99.90;;;;;;5025115;28;20038;-70
2022/10/28 06:27:09;;;;;;;22.43;10.93;;;12.70;99.90;;;;;;5026511;28;20498;-71
2022/10/28 06:29:35;;;;;;;18.63;10.43;;;12.70;99.90;;;;;;5027174;28;20076;-71
2022/10/28 06:32:00;;;;;;;23.17;11.97;;;12.70;99.90;;;;;;5012016;28;20140;-71
2022/10/28 06:34:26;;;;;;;17.43;10.87;;;12.70;99.90;;;;;;5011364;28;20042;-71
2022/10/28 06:36:52;;;;;;;22.30;10.33;;;12.70;99.90;;;;;;5028220;28;20049;-71
2022/10/28 06:39:18;;;;;;;22.00;10.77;;;12.70;99.90;;;;;;5011566;28;20045;-71
2022/10/28 06:41:43;;;;;;;23.17;10.43;;;12.70;99.90;;;;;;5037438;28;20052;-71
2022/10/28 06:44:09;;;;;;;20.13;10.40;;;12.70;99.90;;;;;;5016274;28;20119;-71
2022/10/28 06:46:35;;;;;;;22.43;10.83;;;12.80;99.90;;;;;;4998274;28;20039;-72
2022/10/28 06:49:02;;;;;;;20.73;11.17;;;12.80;99.90;;;;;;5008293;28;20049;-72
2022/10/28 06:51:28;;;;;;;21.50;10.10;;;12.80;99.90;;;;;;5022941;28;20080;-73
2022/10/28 06:53:54;;;;;;;17.57;10.10;;;12.80;99.90;;;;;;5030456;28;20363;-73
2022/10/28 06:56:20;;;;;;;23.73;10.30;;;12.90;99.90;;;;;;5036727;28;20343;-72
2022/10/28 06:58:50;;;;;;;16.93;9.60;;;12.90;99.90;;;;;;5030466;28;20133;-73
2022/10/28 07:01:16;;;;;;;18.20;10.03;;;12.90;99.90;;;;;;5031406;28;20048;-72
2022/10/28 07:03:42;;;;;;;17.33;9.60;;;13.00;99.90;;;;;;5031139;28;20322;-72
2022/10/28 07:06:07;;;;;;;19.07;9.43;;;13.00;99.90;;;;;;5030046;28;20048;-72
2022/10/28 07:08:33;;;;;;;20.03;9.57;;;13.00;99.90;;;;;;5034624;28;20041;-72
2022/10/28 07:10:59;;;;;;;18.37;9.57;;;13.00;99.90;;;;;;5018441;28;20045;-72
2022/10/28 07:13:26;;;;;;;19.33;10.47;;;13.10;99.90;;;;;;5039728;28;20128;-72
2022/10/28 07:15:53;;;;;;;16.70;9.47;;;13.10;99.90;;;;;;5029161;28;20382;-72
2022/10/28 07:18:19;;;;;;;17.07;9.47;;;13.10;99.90;;;;;;5036673;28;20303;-72
2022/10/28 07:20:45;;;;;;;19.60;9.17;;;13.20;99.90;;;;;;5025817;28;20280;-72
2022/10/28 07:23:11;;;;;;;20.50;8.87;;;13.20;99.90;;;;;;5024181;28;20371;-73
2022/10/28 07:25:36;;;;;;;19.13;9.30;;;13.30;99.90;;;;;;5023451;28;20362;-73
2022/10/28 07:28:03;;;;;;;18.17;8.00;;;13.30;99.90;;;;;;5024596;28;20087;-72
2022/10/28 07:30:29;;;;;;;18.50;8.93;;;13.30;99.90;;;;;;5007312;28;20071;-73
2022/10/28 07:32:55;;;;;;;18.53;9.17;;;13.30;99.90;;;;;;5030198;28;20284;-73
2022/10/28 07:35:21;;;;;;;17.20;8.47;;;13.40;99.90;;;;;;5023663;28;20385;-72
2022/10/28 07:37:46;;;;;;;16.90;8.80;;;13.40;99.90;;;;;;5007436;28;20366;-72
2022/10/28 07:40:12;;;;;;;15.07;8.27;;;13.50;99.90;;;;;;5022473;28;20064;-73
2022/10/28 07:42:38;;;;;;;16.30;8.93;;;13.50;99.90;;;;;;5014943;28;20464;-73
2022/10/28 07:45:04;;;;;;;16.07;8.03;;;13.60;99.90;;;;;;5027734;28;20280;-73
2022/10/28 07:47:30;;;;;;;15.23;8.00;;;13.70;99.90;;;;;;5024194;28;20048;-72
2022/10/28 07:49:56;;;;;;;15.43;8.47;;;13.70;99.90;;;;;;5027028;28;20393;-72
2022/10/28 07:52:24;;;;;;;15.83;8.03;;;13.80;99.90;;;;;;5010316;28;20304;-73
2022/10/28 07:54:50;;;;;;;17.87;8.63;;;13.80;99.90;;;;;;5008248;28;20042;-73
2022/10/28 07:57:17;;;;;;;16.50;8.10;;;13.90;99.90;;;;;;5024504;28;20388;-73
2022/10/28 07:59:42;;;;;;;14.93;7.83;;;13.90;99.90;;;;;;5019232;28;20338;-73
2022/10/28 08:02:16;;;;;;;14.07;7.93;;;14.00;99.90;;;;;;4987795;28;20899;-73
2022/10/28 08:04:42;;;;;;;15.53;7.90;;;14.00;99.90;;;;;;5021046;28;20137;-72
2022/10/28 08:07:08;;;;;;;19.23;7.67;;;14.10;99.90;;;;;;5024505;28;20371;-72
2022/10/28 08:09:33;;;;;;;16.17;7.67;;;14.20;99.90;;;;;;5022631;28;20061;-73
2022/10/28 08:11:59;;;;;;;15.03;8.57;;;14.30;99.90;;;;;;5022837;28;20048;-72
2022/10/28 08:14:25;;;;;;;17.70;8.83;;;14.40;99.90;;;;;;5025397;28;20490;-72
2022/10/28 08:16:50;;;;;;;16.60;7.80;;;14.50;99.90;;;;;;5027404;28;20626;-72
2022/10/28 08:19:16;;;;;;;15.17;7.63;;;14.60;99.90;;;;;;5029151;28;20114;-73
2022/10/28 08:21:42;;;;;;;13.77;6.80;;;14.70;99.90;;;;;;4993695;28;20049;-74
2022/10/28 08:24:08;;;;;;;14.13;7.30;;;14.80;99.90;;;;;;5026539;28;20251;-75
2022/10/28 08:26:33;;;;;;;13.90;7.30;;;14.80;99.90;;;;;;5028670;28;20041;-71
2022/10/28 08:29:00;;;;;;;20.20;7.77;;;14.90;99.90;;;;;;5012247;28;20400;-72
2022/10/28 08:31:26;;;;;;;15.17;7.10;;;15.00;99.90;;;;;;5029706;28;20053;-72
2022/10/28 08:33:52;;;;;;;19.37;7.57;;;15.00;99.90;;;;;;5027306;28;20387;-72
2022/10/28 08:36:18;;;;;;;16.90;7.43;;;15.10;99.90;;;;;;4992106;28;20364;-73
2022/10/28 08:38:45;;;;;;;16.47;7.20;;;15.10;99.90;;;;;;5024634;28;20113;-73
2022/10/28 08:41:22;;;;;;;11.77;6.83;;;15.20;99.90;;;;;;5027105;28;20053;-73
2022/10/28 08:43:48;;;;;;;13.13;6.33;;;15.20;99.90;;;;;;5029202;28;20916;-72
2022/10/28 08:46:43;;;;;;;14.57;7.63;;;15.30;99.90;;;;;;5029162;28;20276;-72
2022/10/28 08:49:13;;;;;;;15.73;6.78;;;15.30;99.90;;;;;;5028492;28;20061;-72
2022/10/28 08:52:02;;;;;;;15.30;7.83;;;15.40;99.90;;;;;;5027043;28;20045;-73
2022/10/28 08:54:31;;;;;;;12.93;7.20;;;15.40;99.90;;;;;;5027863;28;20291;-73
2022/10/28 08:56:59;;;;;;;12.60;6.93;;;15.40;99.90;;;;;;5027300;28;20280;-72
2022/10/28 08:59:46;;;;;;;17.57;7.30;;;15.50;99.90;;;;;;5027247;28;20307;-72
2022/10/28 09:02:23;;;;;;;16.63;7.37;;;15.50;99.90;;;;;;5020555;28;20341;-73
2022/10/28 09:05:03;;;;;;;17.03;8.00;;;15.50;99.90;;;;;;5027090;28;20922;-72
2022/10/28 09:07:32;;;;;;;13.30;7.87;;;15.50;99.90;;;;;;5026613;28;20323;-72
2022/10/28 09:09:58;;;;;;;12.07;6.63;;;15.50;99.90;;;;;;5026646;28;20280;-72
2022/10/28 09:12:32;;;;;;;16.50;7.07;;;15.50;99.90;;;;;;5026944;28;20272;-72
2022/10/28 09:15:27;;;;;;;12.63;7.13;;;15.50;99.90;;;;;;5026853;28;20041;-73
2022/10/28 09:18:07;;;;;;;14.35;7.75;;;15.60;99.90;;;;;;5031436;28;20357;-73
2022/10/28 09:20:51;;;;;;;14.40;7.27;;;15.60;99.90;;;;;;5044453;28;20119;-72
2022/10/28 09:23:26;;;;;;;16.73;7.10;;;15.60;99.90;;;;;;5027159;28;20371;-72
2022/10/28 09:25:55;;;;;;;15.30;6.93;;;15.60;99.90;;;;;;5029850;28;20276;-72
2022/10/28 09:28:36;;;;;;;17.00;6.77;;;15.70;99.90;;;;;;5030701;28;20298;-72
2022/10/28 09:31:18;;;;;;;17.57;7.07;;;15.70;99.90;;;;;;5046083;28;20288;-72
2022/10/28 09:34:05;;;;;;;16.03;7.17;;;15.80;99.90;;;;;;5026536;28;20276;-72
2022/10/28 09:36:39;;;;;;;15.47;7.17;;;15.80;99.90;;;;;;5025972;28;20280;-74
2022/10/28 09:39:13;;;;;;;14.70;7.03;;;15.90;99.90;;;;;;5025030;28;20300;-73
2022/10/28 09:41:42;;;;;;;16.05;8.02;;;16.00;99.90;;;;;;5010672;28;20311;-72
2022/10/28 09:44:47;;;;;;;14.87;6.57;;;16.10;99.90;;;;;;5026790;28;20257;-72
2022/10/28 09:47:24;;;;;;;18.07;6.97;;;16.20;99.90;;;;;;4975685;28;20351;-73
2022/10/28 09:49:55;;;;;;;14.37;6.17;;;16.30;99.90;;;;;;4975606;28;20289;-72
2022/10/28 09:52:34;;;;;;;13.70;7.00;;;16.40;99.90;;;;;;5002860;28;20283;-72
2022/10/28 09:55:14;;;;;;;14.37;7.10;;;16.40;99.90;;;;;;5026910;28;20830;-72
2022/10/28 09:57:40;;;;;;;12.53;6.40;;;16.50;99.90;;;;;;5025550;28;20794;-73
2022/10/28 10:00:06;;;;;;;23.63;8.13;;;16.60;99.90;;;;;;5025547;28;20280;-73
2022/10/28 10:02:34;;;;;;;13.70;7.40;;;16.70;99.90;;;;;;5025446;28;20049;-72
2022/10/28 10:05:02;;;;;;;15.10;6.77;;;16.80;99.90;;;;;;5025572;28;20375;-72
2022/10/28 10:07:42;;;;;;;15.83;6.73;;;16.90;99.90;;;;;;5025192;28;20635;-72
2022/10/28 10:10:15;;;;;;;17.27;6.90;;;17.10;99.90;;;;;;5026083;28;20276;-72
2022/10/28 10:12:42;;;;;;;13.17;6.60;;;17.20;99.90;;;;;;5026536;28;20281;-72
2022/10/28 10:15:17;;;;;;;17.93;6.30;;;17.20;99.90;;;;;;5028513;28;20327;-72
2022/10/28 10:17:46;;;;;;;13.60;6.50;;;17.30;99.90;;;;;;5025268;28;20276;-72
2022/10/28 10:20:14;;;;;;;14.30;6.47;;;17.30;99.90;;;;;;5010402;28;20358;-72
2022/10/28 10:22:42;;;;;;;17.47;7.70;;;17.40;99.90;;;;;;5027006;28;20279;-72
2022/10/28 10:25:17;;;;;;;17.20;6.77;;;17.50;99.90;;;;;;5026678;28;20303;-73
2022/10/28 10:28:12;;;;;;;15.25;8.00;;;17.60;99.90;;;;;;5014053;28;20272;-72
2022/10/28 10:30:47;;;;;;;12.77;6.03;;;17.70;99.90;;;;;;5022996;28;20041;-72
2022/10/28 10:33:25;;;;;;;13.75;6.70;;;17.70;99.90;;;;;;5017768;28;20037;-72
2022/10/28 10:35:59;;;;;;;11.70;6.50;;;17.70;99.90;;;;;;5031661;28;20075;-73
2022/10/28 10:38:26;;;;;;;20.25;7.78;;;17.70;99.90;;;;;;5424257;23;21255;-68
2022/10/28 10:40:52;;;;;;;18.23;7.03;;;17.80;99.90;;;;;;5036909;28;20049;-69
2022/10/28 10:43:22;;;;;;;17.73;7.17;;;17.80;99.90;;;;;;5023000;28;20599;-69
2022/10/28 10:46:15;;;;;;;13.20;7.27;;;17.80;99.90;;;;;;5039796;28;20542;-68
2022/10/28 10:48:41;;;;;;;15.50;6.40;;;17.90;99.90;;;;;;5035137;28;20424;-68
2022/10/28 10:51:25;;;;;;;12.90;6.20;;;18.00;99.90;;;;;;5023474;28;20046;-68
2022/10/28 10:54:00;;;;;;;16.20;6.87;;;18.20;99.90;;;;;;5024291;28;20056;-69
2022/10/28 10:56:31;;;;;;;19.63;5.70;;;18.40;99.90;;;;;;5003484;28;20465;-70
2022/10/28 10:59:02;;;;;;;17.00;6.27;;;18.50;99.90;;;;;;5024672;28;20029;-70
2022/10/28 11:01:34;;;;;;;18.10;6.27;;;18.60;99.90;;;;;;5019033;28;20033;-70
2022/10/28 11:04:13;;;;;;;16.73;7.10;;;18.70;99.90;;;;;;5041955;28;20045;-70
2022/10/28 11:06:43;;;;;;;17.13;6.07;;;18.80;99.90;;;;;;5033974;28;20049;-69
2022/10/28 11:09:30;;;;;;;16.57;5.80;;;18.90;99.90;;;;;;5019413;28;20501;-69
2022/10/28 11:11:56;;;;;;;14.03;5.53;;;18.90;99.90;;;;;;5038780;28;20086;-69
2022/10/28 11:14:31;;;;;;;15.20;6.03;;;18.90;99.90;;;;;;4997621;28;20049;-70
2022/10/28 11:16:58;;;;;;;;;;;18.90;99.90;;;;;;5023792;28;20094;-70
2022/10/28 11:19:27;;;;;;;18.20;5.63;;;18.90;99.90;;;;;;5035203;28;19947;-69
2022/10/28 11:22:41;;;;;;;13.07;6.17;;;18.90;99.90;;;;;;5036108;28;20124;-70
2022/10/28 11:25:28;;;;;;;14.80;5.77;;;19.00;99.90;;;;;;5032999;28;20148;-70
2022/10/28 11:28:15;;;;;;;13.43;5.90;;;19.10;99.90;;;;;;5043390;28;20345;-71
2022/10/28 11:31:15;;;;;;;10.70;5.43;;;19.30;99.90;;;;;;5036352;28;20040;-70
2022/10/28 11:33:53;;;;;;;10.90;5.90;;;19.50;99.90;;;;;;5037313;28;20511;-70
2022/10/28 11:36:48;;;;;;;13.83;5.53;;;19.60;99.90;;;;;;5049021;28;20098;-70
2022/10/28 11:39:33;;;;;;;12.77;6.00;;;19.70;99.90;;;;;;5028805;28;20195;-70
2022/10/28 11:42:17;;;;;;;14.13;5.53;;;19.70;99.90;;;;;;5017802;28;20401;-70
2022/10/28 11:44:52;;;;;;;15.27;5.60;;;19.80;99.90;;;;;;5023658;28;20041;-70
2022/10/28 11:47:32;;;;;;;11.90;5.03;;;19.80;99.90;;;;;;5006483;28;20060;-70
2022/10/28 11:50:26;;;;;;;15.90;5.60;;;19.80;99.90;;;;;;5023859;28;20053;-70
2022/10/28 11:53:07;;;;;;;9.97;5.13;;;19.80;99.90;;;;;;5016171;28;20428;-70
2022/10/28 11:55:40;;;;;;;12.63;4.97;;;19.70;99.90;;;;;;5011009;28;20045;-70
2022/10/28 11:58:25;;;;;;;15.93;5.53;;;19.70;99.90;;;;;;5027037;28;20072;-70
2022/10/28 12:01:14;;;;;;;10.20;4.80;;;19.60;99.90;;;;;;5040961;28;20165;-70
2022/10/28 12:03:58;;;;;;;11.47;5.47;;;19.60;99.90;;;;;;5023341;28;20037;-71
2022/10/28 12:06:52;;;;;;;12.77;4.97;;;19.60;99.90;;;;;;5017473;28;20045;-70
2022/10/28 12:09:21;;;;;;;12.83;4.90;;;19.50;99.90;;;;;;5006454;28;20056;-71
2022/10/28 12:12:00;;;;;;;13.93;4.97;;;19.50;99.90;;;;;;5006251;28;20053;-71
2022/10/28 12:14:35;;;;;;;18.63;5.70;;;19.50;99.90;;;;;;5016392;28;20045;-72
2022/10/28 12:17:29;;;;;;;15.10;5.38;;;19.50;99.90;;;;;;5024625;28;20592;-71
2022/10/28 12:20:22;;;;;;;13.50;5.17;;;19.50;99.90;;;;;;5009525;28;20041;-70
2022/10/28 12:22:52;;;;;;;15.27;6.10;;;19.60;99.90;;;;;;4985503;28;20077;-71
2022/10/28 12:25:25;;;;;;;13.17;4.73;;;19.60;99.90;;;;;;5010179;28;20041;-71
2022/10/28 12:27:56;;;;;;;11.93;5.60;;;19.60;99.90;;;;;;5027002;28;20049;-70
2022/10/28 12:30:35;;;;;;;14.83;5.67;;;19.70;99.90;;;;;;5025387;28;20042;-70
2022/10/28 12:33:16;;;;;;;17.37;5.60;;;19.70;99.90;;;;;;5011259;28;20500;-70
2022/10/28 12:35:54;;;;;;;16.90;5.80;;;19.70;99.90;;;;;;5027023;28;20045;-70
2022/10/28 12:38:33;;;;;;;18.90;6.07;;;19.80;99.90;;;;;;5008462;28;20607;-70
2022/10/28 12:41:17;;;;;;;18.10;6.20;;;19.80;99.90;;;;;;5313356;22;20040;31
2022/10/28 12:44:03;;;;;;;12.77;5.17;;;19.80;99.90;;;;;;5015122;28;20057;-71
2022/10/28 12:46:53;;;;;;;14.57;5.40;;;19.80;99.90;;;;;;5031449;28;20132;-72
2022/10/28 12:49:37;;;;;;;15.73;5.83;;;19.80;99.90;;;;;;5007546;28;20053;-72
2022/10/28 12:52:39;;;;;;;21.37;6.33;;;19.80;99.90;;;;;;5026799;28;20521;-72
2022/10/28 12:55:16;;;;;;;15.43;6.03;;;19.90;99.00;;;;;;4975669;28;20064;-72
2022/10/28 12:57:45;;;;;;;13.37;6.00;;;19.90;99.90;;;;;;4995834;28;20050;-71